Time;durP1;ratioP1;P1;durP2;ratioP2;P2;SDS_P1;SDS_P2;PMS_P1;PMS_P2;Temp;Humidity;BMP_temperature;BMP_pressure;BME280_temperature;BME280_humidity;BME280_pressure;Samples;Min_cycle;Max_cycle;Signal;HPM_P1;HPM_P2
2021/01/02 00:02:19;;;;;;;5.45;4.57;;;1.60;99.90;;;;;;6157299;23;20464;-83
2021/01/02 00:04:51;;;;;;;6.38;5.28;;;1.70;99.90;;;;;;6156498;23;20025;-83
2021/01/02 00:07:56;;;;;;;5.97;4.45;;;1.70;99.90;;;;;;6131182;23;20025;-82
2021/01/02 00:10:26;;;;;;;6.45;4.13;;;1.60;99.90;;;;;;6135601;23;20025;-83
2021/01/02 00:13:25;;;;;;;5.40;4.88;;;1.60;99.90;;;;;;6130735;23;20026;-84
2021/01/02 00:16:18;;;;;;;5.80;4.25;;;1.70;99.90;;;;;;6156386;23;20060;-83
2021/01/02 00:19:05;;;;;;;6.17;5.00;;;1.60;99.90;;;;;;6156225;23;20048;-83
2021/01/02 00:22:02;;;;;;;5.10;4.25;;;1.70;99.90;;;;;;6130291;23;20093;-83
2021/01/02 00:24:51;;;;;;;4.93;4.43;;;1.70;99.90;;;;;;6161106;23;20021;-84
2021/01/02 00:27:26;;;;;;;5.82;4.00;;;1.70;99.90;;;;;;6161631;23;20049;-85
2021/01/02 00:29:58;;;;;;;6.30;4.45;;;1.60;99.90;;;;;;6135084;23;20078;-84
2021/01/02 00:32:48;;;;;;;7.82;4.25;;;1.70;99.90;;;;;;6135003;23;20021;-84
2021/01/02 00:35:16;;;;;;;6.00;4.50;;;1.60;99.90;;;;;;6160585;23;20021;-85
2021/01/02 00:37:45;;;;;;;6.97;4.60;;;1.70;99.90;;;;;;6160027;23;20479;-84
2021/01/02 00:40:19;;;;;;;5.68;4.65;;;1.70;99.90;;;;;;6133460;23;20072;-85
2021/01/02 00:42:50;;;;;;;4.82;4.10;;;1.70;99.90;;;;;;6159870;23;20026;-83
2021/01/02 00:45:18;;;;;;;5.45;4.47;;;1.70;99.90;;;;;;6159144;23;20025;-84
2021/01/02 00:47:45;;;;;;;5.95;4.43;;;1.70;99.90;;;;;;6132888;23;20022;-84
2021/01/02 00:50:16;;;;;;;5.20;4.70;;;1.70;99.90;;;;;;6159131;23;20028;-84
2021/01/02 00:52:46;;;;;;;6.18;4.53;;;1.70;99.90;;;;;;6132488;23;20017;-84
2021/01/02 00:55:24;;;;;;;6.22;4.65;;;1.70;99.90;;;;;;6158367;23;20096;-84
2021/01/02 00:58:09;;;;;;;6.68;4.80;;;1.70;99.90;;;;;;6181179;23;20017;-80
2021/01/02 01:00:38;;;;;;;6.05;4.45;;;1.60;99.90;;;;;;6183250;23;20005;-80
2021/01/02 01:03:24;;;;;;;5.28;4.78;;;1.60;99.90;;;;;;6180159;23;20033;-84
2021/01/02 01:05:54;;;;;;;5.25;4.03;;;1.70;99.90;;;;;;6162724;23;20044;-84
2021/01/02 01:08:23;;;;;;;5.63;4.55;;;1.60;99.90;;;;;;6161759;23;20068;-84
2021/01/02 01:10:50;;;;;;;5.82;4.32;;;1.60;99.90;;;;;;6162141;23;20017;-84
2021/01/02 01:13:22;;;;;;;4.93;4.40;;;1.60;99.90;;;;;;6135979;23;20457;-84
2021/01/02 01:15:49;;;;;;;5.50;4.28;;;1.40;99.90;;;;;;6135464;23;20080;-84
2021/01/02 01:18:50;;;;;;;6.10;4.78;;;1.50;99.90;;;;;;6135488;23;20057;-84
2021/01/02 01:21:20;;;;;;;4.85;4.13;;;1.60;99.90;;;;;;6161094;23;20041;-84
2021/01/02 01:24:16;;;;;;;6.63;4.70;;;1.60;99.90;;;;;;6135680;23;20025;-84
2021/01/02 01:27:03;;;;;;;6.30;4.70;;;1.60;99.90;;;;;;6160597;23;20397;-84
2021/01/02 01:29:48;;;;;;;5.57;4.20;;;1.60;99.90;;;;;;6134636;23;20068;-84
2021/01/02 01:32:22;;;;;;;4.68;4.28;;;1.60;99.90;;;;;;6160495;23;20021;-84
2021/01/02 01:35:00;;;;;;;5.38;4.13;;;1.60;99.90;;;;;;6136689;23;20065;-84
2021/01/02 01:37:30;;;;;;;5.35;4.63;;;1.60;99.90;;;;;;6134762;23;20021;-83
2021/01/02 01:39:57;;;;;;;5.60;4.47;;;1.60;99.90;;;;;;6161516;23;20053;-84
2021/01/02 01:42:36;;;;;;;6.50;4.88;;;1.70;99.90;;;;;;6160851;23;20025;-84
2021/01/02 01:45:21;;;;;;;5.03;4.53;;;1.70;99.90;;;;;;6134928;23;20060;-84
2021/01/02 01:48:06;;;;;;;4.65;4.25;;;1.60;99.90;;;;;;6160839;23;20029;-84
2021/01/02 01:50:51;;;;;;;4.97;4.47;;;1.50;99.90;;;;;;6134135;23;20325;-84
2021/01/02 01:53:42;;;;;;;4.55;4.15;;;1.60;99.90;;;;;;6160384;23;20048;-84
2021/01/02 01:56:24;;;;;;;7.65;4.65;;;1.50;99.90;;;;;;6160699;23;20295;-84
2021/01/02 01:58:53;;;;;;;5.20;4.25;;;1.50;99.90;;;;;;6162091;23;20064;-84
2021/01/02 02:01:23;;;;;;;7.50;3.90;;;1.50;99.90;;;;;;6164976;23;20030;-84
2021/01/02 02:04:11;;;;;;;6.72;4.40;;;1.60;99.90;;;;;;6162151;23;20357;-84
2021/01/02 02:06:45;;;;;;;4.68;4.28;;;1.60;99.90;;;;;;6161056;23;20025;-83
2021/01/02 02:09:21;;;;;;;5.07;4.53;;;1.60;99.90;;;;;;6157440;23;20017;-83
2021/01/02 02:12:21;;;;;;;5.82;5.10;;;1.60;99.90;;;;;;6136805;23;20021;-84
2021/01/02 02:15:01;;;;;;;5.43;4.50;;;1.60;99.90;;;;;;6162533;23;20393;-84
2021/01/02 02:17:37;;;;;;;4.75;4.18;;;1.70;99.90;;;;;;6162438;23;20031;-84
2021/01/02 02:20:11;;;;;;;5.47;4.40;;;1.70;99.90;;;;;;6162246;23;20028;-84
2021/01/02 02:22:41;;;;;;;5.80;4.80;;;1.70;99.90;;;;;;6136109;23;20484;-84
2021/01/02 02:25:11;;;;;;;5.93;4.18;;;1.70;99.90;;;;;;6161647;23;20025;-84
2021/01/02 02:27:40;;;;;;;4.72;4.20;;;1.70;99.90;;;;;;6161757;23;20021;-84
2021/01/02 02:30:16;;;;;;;5.07;4.55;;;1.70;99.90;;;;;;6135201;23;20017;-84
2021/01/02 02:32:47;;;;;;;5.95;4.85;;;1.70;99.90;;;;;;6135720;23;20443;-84
2021/01/02 02:35:20;;;;;;;5.38;4.88;;;1.70;99.90;;;;;;6161584;23;20028;-84
2021/01/02 02:37:52;;;;;;;5.38;4.53;;;1.60;99.90;;;;;;6135992;23;20028;-85
2021/01/02 02:40:20;;;;;;;4.88;4.30;;;1.60;99.90;;;;;;6135726;23;20017;-84
2021/01/02 02:42:55;;;;;;;5.65;4.70;;;1.60;99.90;;;;;;6161068;23;20022;-84
2021/01/02 02:45:23;;;;;;;6.25;4.97;;;1.60;99.90;;;;;;6160387;23;20100;-84
2021/01/02 02:47:54;;;;;;;5.35;4.72;;;1.60;99.90;;;;;;6159584;23;20465;-84
2021/01/02 02:50:26;;;;;;;7.40;4.80;;;1.60;99.90;;;;;;6134444;23;20025;-84
2021/01/02 02:53:15;;;;;;;5.60;4.60;;;1.60;99.90;;;;;;6160822;23;20026;-84
2021/01/02 02:55:42;;;;;;;5.28;4.28;;;1.60;99.90;;;;;;6134420;23;20408;-84
2021/01/02 02:58:09;;;;;;;5.55;4.75;;;1.60;99.90;;;;;;6133888;23;20029;-84
2021/01/02 03:00:37;;;;;;;5.45;4.43;;;1.60;99.90;;;;;;6133892;23;20076;-84
2021/01/02 03:03:07;;;;;;;5.03;4.53;;;1.60;99.90;;;;;;6160286;23;20141;-84
2021/01/02 03:05:34;;;;;;;5.43;4.57;;;1.60;99.90;;;;;;6160518;23;20414;-84
2021/01/02 03:08:02;;;;;;;5.18;4.60;;;1.50;99.90;;;;;;6159883;23;20028;-84
2021/01/02 03:10:28;;;;;;;7.13;5.03;;;1.50;99.90;;;;;;6134941;23;20018;-84
2021/01/02 03:12:54;;;;;;;7.22;5.13;;;1.30;99.90;;;;;;6133761;23;20025;-84
2021/01/02 03:15:30;;;;;;;5.35;4.85;;;1.30;99.90;;;;;;6160153;23;20100;-84
2021/01/02 03:17:56;;;;;;;6.63;4.65;;;1.20;99.90;;;;;;6160139;23;20022;-84
2021/01/02 03:20:23;;;;;;;6.05;5.10;;;1.20;99.90;;;;;;6133359;23;20017;-84
2021/01/02 03:22:49;;;;;;;5.75;4.57;;;1.20;99.90;;;;;;6159921;23;20022;-84
2021/01/02 03:25:17;;;;;;;7.43;5.35;;;1.20;99.90;;;;;;6133596;23;20441;-84
2021/01/02 03:27:44;;;;;;;6.15;5.15;;;1.20;99.90;;;;;;6159615;23;20022;-84
2021/01/02 03:30:13;;;;;;;4.63;4.20;;;1.20;99.90;;;;;;6160791;23;20024;-84
2021/01/02 03:32:41;;;;;;;7.28;5.28;;;1.20;99.90;;;;;;6159661;23;20026;-84
2021/01/02 03:35:09;;;;;;;5.15;4.60;;;1.20;99.90;;;;;;6159571;23;20022;-82
2021/01/02 03:37:37;;;;;;;6.00;5.30;;;1.20;99.90;;;;;;6159061;23;20021;-84
2021/01/02 03:40:05;;;;;;;8.30;5.13;;;1.20;99.90;;;;;;6159229;23;20045;-84
2021/01/02 03:42:39;;;;;;;5.25;4.60;;;1.20;99.90;;;;;;6132903;23;20052;-84
2021/01/02 03:45:08;;;;;;;5.60;4.63;;;1.20;99.90;;;;;;6159063;23;20033;-84
2021/01/02 03:47:35;;;;;;;6.30;5.70;;;1.20;99.90;;;;;;6158950;23;20059;-84
2021/01/02 03:50:03;;;;;;;7.05;4.85;;;1.20;99.90;;;;;;6132734;23;20072;-84
2021/01/02 03:52:29;;;;;;;6.05;5.07;;;1.20;99.90;;;;;;6132932;23;20104;-84
2021/01/02 03:54:55;;;;;;;8.27;5.47;;;1.20;99.90;;;;;;6132592;23;20044;-84
2021/01/02 03:57:22;;;;;;;7.20;6.00;;;1.20;99.90;;;;;;6132431;23;20017;-84
2021/01/02 03:59:48;;;;;;;7.53;5.82;;;1.20;99.90;;;;;;6136468;23;20053;-84
2021/01/02 04:02:14;;;;;;;8.27;5.93;;;1.20;99.90;;;;;;6135811;23;20032;-84
2021/01/02 04:04:40;;;;;;;5.88;5.28;;;1.20;99.90;;;;;;6135007;23;20018;-84
2021/01/02 04:07:07;;;;;;;7.40;6.10;;;1.20;99.90;;;;;;6135376;23;20060;-84
2021/01/02 04:09:33;;;;;;;7.97;5.80;;;1.20;99.90;;;;;;6160670;23;20408;-84
2021/01/02 04:11:59;;;;;;;7.95;5.47;;;1.20;99.90;;;;;;6135501;23;20025;-84
2021/01/02 04:14:25;;;;;;;7.30;5.20;;;1.20;99.90;;;;;;6161120;23;20056;-84
2021/01/02 04:16:52;;;;;;;7.38;5.82;;;1.20;99.90;;;;;;6133765;23;20437;-84
2021/01/02 04:19:18;;;;;;;13.18;9.27;;;1.20;99.90;;;;;;6133107;23;20021;-84
2021/01/02 04:21:46;;;;;;;11.80;7.10;;;1.20;99.90;;;;;;6133341;23;20128;-84
2021/01/02 04:24:12;;;;;;;7.07;6.10;;;1.20;99.90;;;;;;6133320;23;20032;-84
2021/01/02 04:26:41;;;;;;;6.72;6.00;;;1.30;99.90;;;;;;6133071;23;20105;-84
2021/01/02 04:29:08;;;;;;;6.75;5.35;;;1.20;99.90;;;;;;6159080;23;20515;-84
2021/01/02 04:31:37;;;;;;;6.45;5.43;;;1.30;99.90;;;;;;6132428;23;20017;-84
2021/01/02 04:34:08;;;;;;;5.57;4.72;;;1.20;99.90;;;;;;6158283;23;20018;-84
2021/01/02 04:36:36;;;;;;;5.75;4.97;;;1.30;99.90;;;;;;6158373;23;20049;-84
2021/01/02 04:39:04;;;;;;;6.25;4.90;;;1.20;99.90;;;;;;6158264;23;20057;-84
2021/01/02 04:41:32;;;;;;;5.45;4.90;;;1.20;99.90;;;;;;6156611;23;20053;-84
2021/01/02 04:43:59;;;;;;;6.20;5.30;;;1.20;99.90;;;;;;6131808;23;20025;-84
2021/01/02 04:46:26;;;;;;;5.85;5.22;;;1.20;99.90;;;;;;6157691;23;20060;-84
2021/01/02 04:48:52;;;;;;;5.30;4.55;;;1.20;99.90;;;;;;6157260;23;20052;-84
2021/01/02 04:51:19;;;;;;;6.32;5.30;;;1.20;99.90;;;;;;6131639;23;20030;-83
2021/01/02 04:53:45;;;;;;;5.32;4.80;;;1.10;99.90;;;;;;6157640;23;20052;-84
2021/01/02 04:56:12;;;;;;;5.88;4.82;;;1.20;99.90;;;;;;6131126;23;20028;-84
2021/01/02 04:58:43;;;;;;;6.22;4.70;;;1.20;99.90;;;;;;6157099;23;20060;-84
2021/01/02 05:01:11;;;;;;;5.88;4.32;;;1.20;99.90;;;;;;6131414;23;20037;-84
2021/01/02 05:03:43;;;;;;;5.82;4.30;;;1.20;99.90;;;;;;6158830;23;20125;-83
2021/01/02 05:06:10;;;;;;;5.80;4.80;;;1.20;99.90;;;;;;6158022;23;20025;-83
2021/01/02 05:08:39;;;;;;;7.78;5.15;;;1.20;99.90;;;;;;6157453;23;20075;-84
2021/01/02 05:11:06;;;;;;;7.75;5.40;;;1.20;99.90;;;;;;6131411;23;20024;-84
2021/01/02 05:13:35;;;;;;;5.80;5.20;;;1.20;99.90;;;;;;6131666;23;20022;-83
2021/01/02 05:16:18;;;;;;;7.72;5.03;;;1.20;99.90;;;;;;6131616;23;20017;-83
2021/01/02 05:18:59;;;;;;;6.13;4.90;;;1.20;99.90;;;;;;6131443;23;20045;-83
2021/01/02 05:21:30;;;;;;;4.53;4.10;;;1.20;99.90;;;;;;6131549;23;20028;-84
2021/01/02 05:24:07;;;;;;;5.30;4.78;;;1.20;99.90;;;;;;6130720;23;20018;-84
2021/01/02 05:26:36;;;;;;;6.25;4.85;;;1.20;99.90;;;;;;6131111;23;20025;-83
2021/01/02 05:29:20;;;;;;;5.28;4.75;;;1.20;99.90;;;;;;6157867;23;20041;-84
2021/01/02 05:31:48;;;;;;;4.85;4.30;;;1.10;99.90;;;;;;6131037;23;20449;-84
2021/01/02 05:34:18;;;;;;;5.88;4.55;;;0.90;99.90;;;;;;6131746;23;20021;-84
2021/01/02 05:36:45;;;;;;;5.43;4.90;;;0.80;99.90;;;;;;6156909;23;20053;-84
2021/01/02 05:39:16;;;;;;;5.38;4.85;;;0.70;99.90;;;;;;6131184;23;20079;-84
2021/01/02 05:41:47;;;;;;;5.20;4.70;;;0.60;99.90;;;;;;6157531;23;20057;-83
2021/01/02 05:44:14;;;;;;;6.05;5.28;;;0.50;99.90;;;;;;6131215;23;20026;-84
2021/01/02 05:46:54;;;;;;;6.03;5.10;;;0.50;99.90;;;;;;6155007;23;20034;-86
2021/01/02 05:49:30;;;;;;;6.47;4.70;;;0.40;99.90;;;;;;6159318;23;20017;-84
2021/01/02 05:51:58;;;;;;;6.05;4.47;;;0.30;99.90;;;;;;6156002;23;20519;-84
2021/01/02 05:54:29;;;;;;;6.13;4.80;;;0.20;99.90;;;;;;6155784;23;20022;-84
2021/01/02 05:57:03;;;;;;;6.28;5.07;;;0.20;99.90;;;;;;6156606;23;20025;-84
2021/01/02 05:59:38;;;;;;;6.30;4.95;;;0.10;99.90;;;;;;6156293;23;20048;-83
2021/01/02 06:02:43;;;;;;;5.65;4.72;;;0.10;99.90;;;;;;6129961;23;20040;-83
2021/01/02 06:05:10;;;;;;;8.32;5.40;;;0.10;99.90;;;;;;6066007;23;20061;-84
2021/01/02 06:07:39;;;;;;;8.00;5.20;;;0.00;99.90;;;;;;6066074;23;20062;-84
2021/01/02 06:10:09;;;;;;;6.57;4.90;;;-0.10;99.90;;;;;;6111331;23;20028;-83
2021/01/02 06:12:41;;;;;;;6.20;5.13;;;-0.20;99.90;;;;;;6156317;23;20026;-83
2021/01/02 06:15:15;;;;;;;5.65;4.82;;;-0.30;99.90;;;;;;6156351;23;20060;-83
2021/01/02 06:17:48;;;;;;;7.05;5.43;;;-0.40;99.90;;;;;;6130611;23;20087;-83
2021/01/02 06:20:17;;;;;;;7.23;5.47;;;-0.50;99.90;;;;;;6130061;23;20055;-83
2021/01/02 06:22:44;;;;;;;6.93;5.75;;;-0.50;99.90;;;;;;6155889;23;20488;-84
2021/01/02 06:25:12;;;;;;;8.10;5.57;;;-0.60;99.90;;;;;;6130644;23;20076;-84
2021/01/02 06:27:43;;;;;;;6.53;5.78;;;-0.60;99.90;;;;;;6156243;23;20100;-83
2021/01/02 06:30:15;;;;;;;6.57;5.45;;;-0.70;99.90;;;;;;6156435;23;20376;-83
2021/01/02 06:32:48;;;;;;;8.65;6.35;;;-0.70;99.90;;;;;;6129896;23;20460;-84
2021/01/02 06:35:19;;;;;;;7.70;6.65;;;-0.70;99.90;;;;;;6155680;23;20021;-83
2021/01/02 06:37:48;;;;;;;8.65;6.70;;;-0.70;99.90;;;;;;6156258;23;20052;-84
2021/01/02 06:40:37;;;;;;;9.00;6.72;;;-0.60;99.90;;;;;;6130224;23;20098;-83
2021/01/02 06:43:06;;;;;;;9.18;6.65;;;-0.50;99.90;;;;;;6129925;23;20084;-84
2021/01/02 06:45:35;;;;;;;8.82;6.22;;;-0.40;99.90;;;;;;6131801;23;20422;-83
2021/01/02 06:48:16;;;;;;;11.00;6.40;;;-0.40;99.90;;;;;;6160513;23;20060;-84
2021/01/02 06:50:47;;;;;;;11.88;7.63;;;-0.30;99.90;;;;;;6160166;23;20048;-83
2021/01/02 06:53:26;;;;;;;9.65;7.07;;;-0.30;99.90;;;;;;6160481;23;20052;-84
2021/01/02 06:56:16;;;;;;;8.68;6.60;;;-0.30;99.90;;;;;;6159888;23;20026;-84
2021/01/02 06:58:49;;;;;;;8.93;6.90;;;-0.20;99.90;;;;;;6134087;23;20017;-84
2021/01/02 07:01:15;;;;;;;8.02;6.53;;;-0.20;99.90;;;;;;6133865;23;20017;-84
2021/01/02 07:03:42;;;;;;;8.80;6.65;;;-0.10;99.90;;;;;;6134899;23;20345;-85
2021/01/02 07:06:26;;;;;;;7.68;6.00;;;0.00;99.90;;;;;;6133713;23;20073;-84
2021/01/02 07:08:58;;;;;;;9.80;7.50;;;-0.10;99.90;;;;;;6134130;23;20013;-84
2021/01/02 07:11:46;;;;;;;8.48;6.70;;;0.00;99.90;;;;;;6160781;23;20018;-84
2021/01/02 07:14:14;;;;;;;8.82;6.28;;;0.00;99.90;;;;;;6133765;23;20017;-84
2021/01/02 07:16:45;;;;;;;7.38;5.80;;;0.00;99.90;;;;;;6159561;23;20017;-84
2021/01/02 07:19:24;;;;;;;8.43;6.45;;;0.10;99.90;;;;;;6133587;23;20028;-84
2021/01/02 07:22:17;;;;;;;9.60;7.32;;;0.10;99.90;;;;;;6133250;23;20048;-84
2021/01/02 07:25:02;;;;;;;6.53;5.70;;;0.10;99.90;;;;;;6133775;23;20025;-84
2021/01/02 07:27:32;;;;;;;9.02;6.40;;;0.10;99.90;;;;;;6133050;23;20051;-84
2021/01/02 07:30:05;;;;;;;8.10;6.00;;;0.10;99.90;;;;;;6159545;23;20535;-84
2021/01/02 07:32:33;;;;;;;7.68;6.07;;;0.10;99.90;;;;;;6133765;23;20088;-84
2021/01/02 07:35:08;;;;;;;7.80;6.15;;;0.10;99.90;;;;;;6160499;23;20068;-84
2021/01/02 07:37:37;;;;;;;8.35;5.68;;;0.10;99.90;;;;;;6144534;23;20020;-87
2021/01/02 07:40:05;;;;;;;7.97;6.32;;;0.20;99.90;;;;;;6152083;23;20017;-84
2021/01/02 07:42:39;;;;;;;13.10;7.82;;;0.30;99.90;;;;;;6157514;23;20065;-84
2021/01/02 07:45:09;;;;;;;10.60;6.05;;;0.40;99.90;;;;;;6131564;23;20017;-84
2021/01/02 07:47:45;;;;;;;7.68;6.05;;;0.40;99.90;;;;;;6157691;23;20111;-84
2021/01/02 07:50:14;;;;;;;8.13;5.88;;;0.40;99.90;;;;;;6158075;23;20017;-84
2021/01/02 07:52:51;;;;;;;8.88;6.38;;;0.50;99.90;;;;;;6132168;23;20053;-84
2021/01/02 07:55:24;;;;;;;9.85;7.13;;;0.60;99.90;;;;;;6157753;23;20021;-84
2021/01/02 07:57:51;;;;;;;8.18;6.10;;;0.60;99.90;;;;;;6157984;23;20021;-84
2021/01/02 08:00:18;;;;;;;10.82;7.35;;;0.60;99.90;;;;;;6132335;23;20025;-84
2021/01/02 08:02:44;;;;;;;7.93;6.28;;;0.70;99.90;;;;;;6158533;23;20025;-84
2021/01/02 08:05:16;;;;;;;8.68;5.93;;;0.70;99.90;;;;;;6158564;23;20021;-84
2021/01/02 08:07:52;;;;;;;10.90;8.07;;;0.70;99.90;;;;;;6158359;23;20049;-84
2021/01/02 08:10:18;;;;;;;13.30;8.75;;;0.70;99.90;;;;;;6132435;23;20045;-84
2021/01/02 08:12:46;;;;;;;11.63;7.88;;;0.80;99.90;;;;;;6132575;23;20028;-84
2021/01/02 08:15:17;;;;;;;11.98;7.90;;;0.90;99.90;;;;;;6159053;23;20021;-84
2021/01/02 08:17:44;;;;;;;11.63;7.55;;;0.80;99.90;;;;;;6132741;23;20022;-85
2021/01/02 08:20:11;;;;;;;7.78;6.38;;;0.90;99.90;;;;;;6133050;23;20061;-84
2021/01/02 08:22:38;;;;;;;8.85;5.95;;;1.00;99.90;;;;;;6132614;23;20026;-84
2021/01/02 08:25:10;;;;;;;8.55;5.68;;;1.10;99.90;;;;;;6158342;23;20357;-84
2021/01/02 08:27:37;;;;;;;8.60;6.20;;;1.10;99.90;;;;;;6158877;23;20025;-84
2021/01/02 08:30:06;;;;;;;9.88;7.30;;;1.20;99.90;;;;;;6158677;23;20028;-84
2021/01/02 08:32:35;;;;;;;12.48;6.32;;;1.30;99.90;;;;;;6158795;23;20021;-85
2021/01/02 08:35:02;;;;;;;10.27;7.35;;;1.40;99.90;;;;;;6158894;23;20053;-84
2021/01/02 08:37:29;;;;;;;7.53;6.15;;;1.50;99.90;;;;;;6133412;23;20018;-84
2021/01/02 08:40:05;;;;;;;6.97;5.65;;;1.60;99.90;;;;;;6132429;23;20100;-84
2021/01/02 08:42:40;;;;;;;6.80;5.53;;;1.60;99.90;;;;;;6133284;23;20365;-85
2021/01/02 08:45:30;;;;;;;6.13;5.22;;;1.70;99.90;;;;;;6159233;23;20026;-84
2021/01/02 08:48:07;;;;;;;7.72;5.97;;;1.80;99.90;;;;;;6122379;23;20026;-84
2021/01/02 08:50:34;;;;;;;7.38;5.25;;;1.90;99.90;;;;;;6159349;23;20068;-84
2021/01/02 08:53:02;;;;;;;7.20;5.63;;;2.10;99.90;;;;;;6132912;23;20033;-85
2021/01/02 08:55:29;;;;;;;6.65;5.45;;;2.10;99.90;;;;;;6133180;23;20072;-84
2021/01/02 08:57:55;;;;;;;7.45;5.65;;;2.20;99.90;;;;;;6133358;23;20089;-84
2021/01/02 09:00:30;;;;;;;7.05;5.47;;;2.30;99.90;;;;;;6134004;23;20052;-84
2021/01/02 09:03:02;;;;;;;10.10;7.20;;;2.40;99.90;;;;;;6133461;23;20092;-84
2021/01/02 09:05:37;;;;;;;8.70;6.18;;;2.30;99.90;;;;;;6133451;23;20028;-84
2021/01/02 09:08:08;;;;;;;11.32;8.50;;;2.30;99.90;;;;;;6133450;23;20022;-84
2021/01/02 09:10:34;;;;;;;12.85;7.85;;;2.30;99.90;;;;;;6159372;23;20074;-84
2021/01/02 09:13:04;;;;;;;10.15;7.15;;;2.30;99.90;;;;;;6158984;23;20092;-85
2021/01/02 09:15:43;;;;;;;10.35;7.18;;;2.40;99.90;;;;;;6133618;23;20044;-84
2021/01/02 09:18:11;;;;;;;9.77;6.78;;;2.40;99.90;;;;;;6133819;23;20017;-84
2021/01/02 09:20:38;;;;;;;8.77;6.38;;;2.40;99.90;;;;;;6134460;23;20051;-85
2021/01/02 09:23:04;;;;;;;8.07;6.70;;;2.40;99.90;;;;;;6134495;23;20021;-84
2021/01/02 09:25:32;;;;;;;11.35;6.70;;;2.50;99.90;;;;;;6160285;23;20027;-84
2021/01/02 09:28:15;;;;;;;8.88;6.93;;;2.50;99.90;;;;;;6134149;23;20033;-85
2021/01/02 09:30:44;;;;;;;9.50;7.00;;;2.60;99.90;;;;;;6147099;23;20026;-86
2021/01/02 09:33:10;;;;;;;9.77;7.18;;;2.70;99.90;;;;;;6172663;23;20022;-84
2021/01/02 09:35:38;;;;;;;10.43;7.68;;;2.90;99.90;;;;;;6130597;23;20032;-84
2021/01/02 09:38:05;;;;;;;12.10;7.28;;;3.00;99.90;;;;;;6130723;23;20024;-84
2021/01/02 09:40:34;;;;;;;8.98;7.43;;;3.00;99.90;;;;;;6131111;23;20061;-84
2021/01/02 09:43:01;;;;;;;8.60;6.32;;;3.00;99.90;;;;;;6131926;23;20052;-84
2021/01/02 09:45:27;;;;;;;10.70;6.97;;;3.00;99.90;;;;;;6157742;23;20412;-84
2021/01/02 09:47:54;;;;;;;9.73;6.80;;;3.10;99.90;;;;;;6132273;23;20025;-84
2021/01/02 09:50:21;;;;;;;9.65;7.03;;;3.10;99.90;;;;;;6158265;23;20023;-84
2021/01/02 09:52:47;;;;;;;10.25;6.57;;;3.20;99.90;;;;;;6132839;23;20044;-84
2021/01/02 09:55:14;;;;;;;8.60;6.35;;;3.30;99.90;;;;;;6158312;23;20028;-84
2021/01/02 09:57:40;;;;;;;8.60;6.35;;;3.40;99.90;;;;;;6158699;23;20485;-84
2021/01/02 10:00:08;;;;;;;8.07;6.43;;;3.40;99.90;;;;;;6158182;23;20105;-85
2021/01/02 10:02:35;;;;;;;9.27;6.85;;;3.50;99.90;;;;;;6132854;23;20026;-84
2021/01/02 10:05:01;;;;;;;8.93;6.57;;;3.50;99.90;;;;;;6160151;23;20026;-84
2021/01/02 10:07:27;;;;;;;8.00;6.40;;;3.60;99.90;;;;;;6133319;23;20057;-84
2021/01/02 10:09:54;;;;;;;8.10;6.13;;;3.60;99.90;;;;;;6159336;23;20345;-84
2021/01/02 10:12:20;;;;;;;7.60;6.20;;;3.80;99.90;;;;;;6160138;23;20044;-84
2021/01/02 10:14:47;;;;;;;8.70;6.50;;;3.80;99.90;;;;;;6133784;23;20356;-84
2021/01/02 10:17:16;;;;;;;10.50;6.57;;;3.90;99.90;;;;;;6133739;23;20052;-84
2021/01/02 10:19:47;;;;;;;13.07;8.02;;;3.90;99.90;;;;;;6134804;23;20025;-84
2021/01/02 10:22:16;;;;;;;11.15;7.30;;;3.90;99.90;;;;;;6135546;23;20093;-84
2021/01/02 10:24:46;;;;;;;9.35;6.00;;;3.90;99.90;;;;;;6160886;23;20034;-83
2021/01/02 10:27:12;;;;;;;9.90;6.88;;;4.00;99.90;;;;;;6134733;23;20041;-84
2021/01/02 10:29:43;;;;;;;9.20;6.78;;;4.00;99.90;;;;;;6136232;23;20045;-84
2021/01/02 10:32:09;;;;;;;8.25;6.80;;;4.10;99.90;;;;;;6161354;23;20048;-83
2021/01/02 10:34:35;;;;;;;8.45;6.53;;;4.20;99.90;;;;;;6135984;23;20021;-83
2021/01/02 10:37:02;;;;;;;7.25;5.75;;;4.30;99.90;;;;;;6161217;23;20020;-85
2021/01/02 10:39:29;;;;;;;8.13;6.13;;;4.50;99.90;;;;;;6135354;23;20556;-84
2021/01/02 10:41:55;;;;;;;9.75;6.38;;;4.60;99.90;;;;;;6135136;23;20516;-84
2021/01/02 10:44:22;;;;;;;8.70;6.28;;;4.60;99.90;;;;;;6162673;23;20028;-84
2021/01/02 10:46:51;;;;;;;8.25;5.82;;;4.60;99.90;;;;;;6161115;23;20030;-84
2021/01/02 10:49:20;;;;;;;8.57;5.90;;;4.70;99.90;;;;;;6161987;23;20022;-84
2021/01/02 10:51:47;;;;;;;7.97;6.43;;;4.70;99.90;;;;;;6161676;23;20071;-84
2021/01/02 10:54:16;;;;;;;6.97;5.85;;;4.80;99.90;;;;;;6144689;23;20009;-85
2021/01/02 10:56:50;;;;;;;8.25;6.35;;;4.70;99.90;;;;;;6160122;23;20006;-86
2021/01/02 10:59:19;;;;;;;8.52;6.22;;;4.60;99.90;;;;;;6160332;23;20009;-86
2021/01/02 11:01:47;;;;;;;8.45;6.60;;;4.70;99.90;;;;;;6159434;23;20029;-86
2021/01/02 11:04:15;;;;;;;9.80;6.95;;;4.80;99.90;;;;;;6144724;23;20022;-85
2021/01/02 11:06:43;;;;;;;8.05;6.15;;;4.80;99.90;;;;;;6169298;23;20021;-85
2021/01/02 11:09:13;;;;;;;9.40;7.05;;;4.80;99.90;;;;;;6168698;23;20029;-85
2021/01/02 11:11:41;;;;;;;11.70;7.40;;;4.80;99.90;;;;;;6168707;23;20025;-85
2021/01/02 11:14:08;;;;;;;10.55;7.13;;;4.80;99.90;;;;;;6168576;23;20021;-85
2021/01/02 11:16:37;;;;;;;10.63;8.07;;;4.80;99.90;;;;;;6173140;23;20097;-85
2021/01/02 11:19:24;;;;;;;11.15;7.57;;;4.60;99.90;;;;;;6168111;23;20021;-85
2021/01/02 11:21:53;;;;;;;10.45;7.70;;;4.50;99.90;;;;;;6142162;23;20022;-85
2021/01/02 11:24:25;;;;;;;11.82;7.70;;;4.30;99.90;;;;;;6167672;23;20032;-85
2021/01/02 11:26:54;;;;;;;9.63;7.53;;;4.30;99.90;;;;;;6161460;23;20056;-84
2021/01/02 11:29:22;;;;;;;1999.90;999.90;;;4.40;99.90;;;;;;6158092;23;20026;-84
2021/01/02 11:31:49;;;;;;;859.20;420.98;;;4.30;99.90;;;;;;6162139;23;20021;-84
2021/01/02 11:34:21;;;;;;;66.47;30.65;;;4.20;99.90;;;;;;6164827;23;20029;-84
2021/01/02 11:36:53;;;;;;;4.88;4.30;;;4.20;99.90;;;;;;6165815;23;20021;-85
2021/01/02 11:39:20;;;;;;;21.90;14.68;;;4.00;99.90;;;;;;6165674;23;20033;-85
2021/01/02 11:41:47;;;;;;;41.40;22.38;;;4.10;99.90;;;;;;6165454;23;20057;-84
2021/01/02 11:44:17;;;;;;;111.43;54.22;;;4.00;99.90;;;;;;6165062;23;20060;-85
2021/01/02 11:46:46;;;;;;;162.35;80.55;;;4.30;99.90;;;;;;6139200;23;20021;-84
2021/01/02 11:49:16;;;;;;;142.18;68.35;;;4.30;99.90;;;;;;6138472;23;20055;-84
2021/01/02 11:51:50;;;;;;;239.43;127.95;;;4.20;99.90;;;;;;6165188;23;20032;-84
2021/01/02 11:54:17;;;;;;;82.30;48.47;;;3.90;99.90;;;;;;6165707;23;20464;-85
2021/01/02 11:56:44;;;;;;;33.28;22.70;;;4.10;99.90;;;;;;6166323;23;20109;-84
2021/01/02 11:59:11;;;;;;;68.57;47.40;;;4.10;99.90;;;;;;6139278;23;20028;-85
2021/01/02 12:01:47;;;;;;;82.65;53.97;;;3.80;99.90;;;;;;6137890;23;20025;-84
2021/01/02 12:04:15;;;;;;;41.88;27.58;;;3.90;99.90;;;;;;6138791;23;20022;-84
2021/01/02 12:06:41;;;;;;;31.60;25.70;;;4.00;99.90;;;;;;6139936;23;20021;-84
2021/01/02 12:09:10;;;;;;;17.95;14.55;;;3.90;99.90;;;;;;6164345;23;20025;-84
2021/01/02 12:11:41;;;;;;;14.77;13.40;;;3.90;99.90;;;;;;6139375;23;20052;-84
2021/01/02 12:14:09;;;;;;;3.05;1.60;;;3.80;99.90;;;;;;6139514;23;20024;-84
2021/01/02 12:16:38;;;;;;;2.83;2.53;;;3.90;99.90;;;;;;6139848;23;20080;-84
2021/01/02 12:19:06;;;;;;;3.72;2.00;;;3.80;99.90;;;;;;6165844;23;20474;-84
2021/01/02 12:21:34;;;;;;;1.80;1.70;;;3.80;99.90;;;;;;6167032;23;20032;-84
2021/01/02 12:24:00;;;;;;;3.55;3.05;;;3.90;99.90;;;;;;6165729;23;20026;-84
2021/01/02 12:26:26;;;;;;;2.15;2.05;;;4.10;99.90;;;;;;6165886;23;20057;-84
2021/01/02 12:28:54;;;;;;;4.97;3.60;;;4.40;99.90;;;;;;6165453;23;20465;-84
2021/01/02 12:31:42;;;;;;;4.13;3.65;;;4.40;99.90;;;;;;6143195;23;20034;-85
2021/01/02 12:34:09;;;;;;;2.15;1.73;;;4.60;99.90;;;;;;6165379;23;20022;-84
2021/01/02 12:36:39;;;;;;;7.53;1.92;;;4.50;99.90;;;;;;6138639;23;20028;-84
2021/01/02 12:39:07;;;;;;;2.50;2.17;;;4.40;99.90;;;;;;6138375;23;20018;-84
2021/01/02 12:41:33;;;;;;;1.63;1.52;;;4.40;99.90;;;;;;6163706;23;20049;-84
2021/01/02 12:44:00;;;;;;;5.53;1.98;;;4.30;99.90;;;;;;6138485;23;20400;-84
2021/01/02 12:46:26;;;;;;;11.35;2.47;;;4.20;99.90;;;;;;6138435;23;20041;-84
2021/01/02 12:48:53;;;;;;;8.07;2.20;;;4.20;99.90;;;;;;6138430;23;20068;-84
2021/01/02 12:51:21;;;;;;;12.98;2.78;;;4.30;99.90;;;;;;6138644;23;20018;-84
2021/01/02 12:53:48;;;;;;;15.43;3.53;;;4.20;99.90;;;;;;6137319;23;20453;-84
2021/01/02 12:56:16;;;;;;;12.20;3.72;;;4.10;99.90;;;;;;6161933;23;20028;-84
2021/01/02 12:58:43;;;;;;;3.63;2.95;;;4.10;99.90;;;;;;6163106;23;20021;-84
2021/01/02 13:01:09;;;;;;;5.75;2.55;;;4.00;99.90;;;;;;6136779;23;20062;-84
2021/01/02 13:03:36;;;;;;;13.98;9.73;;;3.80;99.90;;;;;;6136718;23;20025;-84
2021/01/02 13:06:02;;;;;;;27.65;15.57;;;3.70;99.90;;;;;;6160259;23;20040;-83
2021/01/02 13:08:28;;;;;;;3.03;2.72;;;3.70;99.90;;;;;;6161513;23;20056;-84
2021/01/02 13:10:54;;;;;;;4.47;2.35;;;3.70;99.90;;;;;;6135868;23;20072;-84
2021/01/02 13:13:21;;;;;;;15.13;4.75;;;3.70;99.90;;;;;;6138869;23;20028;-85
2021/01/02 13:15:47;;;;;;;10.75;3.72;;;3.80;99.90;;;;;;6140559;23;20045;-85